Time;durP1;ratioP1;P1;durP2;ratioP2;P2;SDS_P1;SDS_P2;PMS_P1;PMS_P2;Temp;Humidity;BMP_temperature;BMP_pressure;BME280_temperature;BME280_humidity;BME280_pressure;Samples;Min_cycle;Max_cycle;Signal;HPM_P1;HPM_P2
2021/12/30 00:00:34;;;;;;;33.67;4.57;;;7.00;99.90;;;;;;4919827;29;20046;-78
2021/12/30 00:03:01;;;;;;;23.52;4.35;;;6.90;99.90;;;;;;4920327;29;20087;-78
2021/12/30 00:05:26;;;;;;;27.75;4.15;;;6.90;99.90;;;;;;4920210;29;20543;-79
2021/12/30 00:07:52;;;;;;;29.67;5.00;;;6.80;99.90;;;;;;4920254;29;20052;-79
2021/12/30 00:10:18;;;;;;;25.80;4.25;;;6.90;99.90;;;;;;4920282;29;20051;-79
2021/12/30 00:12:44;;;;;;;35.25;5.97;;;6.90;99.90;;;;;;4920511;29;20055;-79
2021/12/30 00:15:10;;;;;;;33.25;4.97;;;6.90;99.90;;;;;;4920202;29;20106;-79
2021/12/30 00:17:36;;;;;;;38.83;6.82;;;6.90;99.90;;;;;;4920049;29;20396;-79
2021/12/30 00:20:08;;;;;;;32.85;6.60;;;7.00;99.90;;;;;;4919973;29;20506;-79
2021/12/30 00:22:35;;;;;;;32.10;5.70;;;7.00;99.90;;;;;;4920389;29;20044;-79
2021/12/30 00:25:00;;;;;;;38.92;5.47;;;7.00;99.90;;;;;;4920019;29;20403;-79
2021/12/30 00:27:26;;;;;;;28.17;4.35;;;7.00;99.90;;;;;;4919903;29;20123;-79
2021/12/30 00:29:52;;;;;;;33.58;4.20;;;7.00;99.90;;;;;;4920068;29;20052;-79
2021/12/30 00:32:18;;;;;;;34.97;4.57;;;6.90;99.90;;;;;;4919849;29;20051;-79
2021/12/30 00:34:43;;;;;;;38.85;6.22;;;7.00;99.90;;;;;;4936998;29;20044;-79
2021/12/30 00:37:09;;;;;;;35.58;5.28;;;6.90;99.90;;;;;;4919894;29;20050;-79
2021/12/30 00:39:35;;;;;;;34.75;5.05;;;7.00;99.90;;;;;;4920115;29;20051;-79
2021/12/30 00:42:00;;;;;;;31.60;5.38;;;6.90;99.90;;;;;;4936798;29;20400;-79
2021/12/30 00:44:26;;;;;;;34.95;6.00;;;7.00;99.90;;;;;;4919554;29;20051;-79
2021/12/30 00:46:52;;;;;;;41.97;7.07;;;6.90;99.90;;;;;;4919473;29;20056;-79
2021/12/30 00:49:18;;;;;;;44.00;6.32;;;6.90;99.90;;;;;;4936575;29;20083;-79
2021/12/30 00:51:43;;;;;;;37.05;5.53;;;6.90;99.90;;;;;;4936506;29;20060;-79
2021/12/30 00:54:09;;;;;;;37.17;8.68;;;6.80;99.90;;;;;;4919850;29;20153;-79
2021/12/30 00:56:35;;;;;;;40.15;6.63;;;6.80;99.90;;;;;;4919513;29;20556;-79
2021/12/30 00:59:01;;;;;;;45.75;7.80;;;6.80;99.90;;;;;;4919411;29;20055;-79
2021/12/30 01:01:27;;;;;;;47.15;7.72;;;6.80;99.90;;;;;;4919366;29;20043;-79
2021/12/30 01:03:53;;;;;;;47.92;6.65;;;6.80;99.90;;;;;;4919338;29;20044;-79
2021/12/30 01:06:18;;;;;;;41.58;7.82;;;6.80;99.90;;;;;;4919372;29;20095;-79
2021/12/30 01:08:45;;;;;;;40.72;6.70;;;6.80;99.90;;;;;;4919445;29;20048;-79
2021/12/30 01:11:12;;;;;;;36.78;6.63;;;6.80;99.90;;;;;;4919342;29;20053;-79
2021/12/30 01:13:42;;;;;;;46.00;7.72;;;6.80;99.90;;;;;;4936294;29;20052;-79
2021/12/30 01:16:22;;;;;;;34.53;7.22;;;6.80;99.90;;;;;;4920010;29;20074;-79
2021/12/30 01:19:22;;;;;;;38.80;6.47;;;6.70;99.90;;;;;;4919396;29;20073;-78
2021/12/30 01:21:50;;;;;;;46.67;7.82;;;6.70;99.90;;;;;;4919349;29;20051;-78
2021/12/30 01:24:16;;;;;;;34.25;6.07;;;6.60;99.90;;;;;;4919155;29;20404;-79
2021/12/30 01:26:42;;;;;;;40.88;6.25;;;6.60;99.90;;;;;;4919097;29;20500;-79
2021/12/30 01:29:07;;;;;;;41.28;6.78;;;6.60;99.90;;;;;;4919240;29;20058;-79
2021/12/30 01:31:33;;;;;;;41.67;7.28;;;6.60;99.90;;;;;;4919148;29;20044;-79
2021/12/30 01:33:59;;;;;;;34.38;5.75;;;6.60;99.90;;;;;;4919482;29;20048;-79
2021/12/30 01:36:27;;;;;;;53.05;7.10;;;6.70;99.90;;;;;;4919277;29;20054;-79
2021/12/30 01:38:53;;;;;;;42.20;7.15;;;6.60;99.90;;;;;;4919284;29;20488;-79
2021/12/30 01:41:21;;;;;;;40.47;7.72;;;6.60;99.90;;;;;;4936125;29;20055;-79
2021/12/30 01:43:47;;;;;;;42.05;6.40;;;6.60;99.90;;;;;;4919304;29;20070;-79
2021/12/30 01:46:12;;;;;;;35.72;6.82;;;6.60;99.90;;;;;;4935933;29;20484;-79
2021/12/30 01:48:38;;;;;;;56.70;7.60;;;6.60;99.90;;;;;;4936138;29;20051;-79
2021/12/30 01:51:05;;;;;;;45.63;6.25;;;6.60;99.90;;;;;;4918664;29;20054;-79
2021/12/30 01:53:31;;;;;;;54.58;9.13;;;6.60;99.90;;;;;;4918924;29;20055;-79
2021/12/30 01:55:57;;;;;;;46.47;9.38;;;6.60;99.90;;;;;;4919260;29;20135;-79
2021/12/30 01:58:22;;;;;;;45.10;6.88;;;6.60;99.90;;;;;;4918976;29;20484;-79
2021/12/30 02:00:50;;;;;;;41.38;6.07;;;6.50;99.90;;;;;;4918971;29;20095;-79
2021/12/30 02:03:17;;;;;;;41.42;6.43;;;6.50;99.90;;;;;;4919172;29;20099;-79
2021/12/30 02:05:43;;;;;;;46.42;6.43;;;6.50;99.90;;;;;;4919170;29;20119;-79
2021/12/30 02:08:13;;;;;;;43.53;7.43;;;6.50;99.90;;;;;;4935833;29;20056;-79
2021/12/30 02:10:40;;;;;;;47.45;6.03;;;6.40;99.90;;;;;;4918930;29;20059;-85
2021/12/30 02:13:10;;;;;;;45.22;5.68;;;6.50;99.90;;;;;;4919163;29;20083;-84
2021/12/30 02:15:37;;;;;;;39.08;6.00;;;6.50;99.90;;;;;;4918881;29;20047;-84
2021/12/30 02:18:03;;;;;;;48.67;6.85;;;6.50;99.90;;;;;;4918847;29;20052;-85
2021/12/30 02:20:53;;;;;;;36.67;6.07;;;6.50;99.90;;;;;;4935882;29;20039;-84
2021/12/30 02:23:21;;;;;;;45.55;5.78;;;6.50;99.90;;;;;;4936413;29;20562;-84
2021/12/30 02:25:49;;;;;;;43.72;6.57;;;6.50;99.90;;;;;;4922302;29;20110;-84
2021/12/30 02:28:17;;;;;;;46.80;10.90;;;6.40;99.90;;;;;;4939247;29;20048;-84
2021/12/30 02:30:45;;;;;;;44.33;6.28;;;6.40;99.90;;;;;;4922232;29;20074;-84
2021/12/30 02:33:12;;;;;;;54.05;7.70;;;6.40;99.90;;;;;;4922206;29;20075;-84
2021/12/30 02:35:38;;;;;;;45.85;6.25;;;6.40;99.90;;;;;;4922211;29;20088;-84
2021/12/30 02:38:04;;;;;;;36.17;5.60;;;6.40;99.90;;;;;;4939085;29;20611;-84
2021/12/30 02:40:39;;;;;;;42.50;5.40;;;6.40;99.90;;;;;;4921997;29;20126;-84
2021/12/30 02:43:12;;;;;;;43.55;5.63;;;6.50;99.90;;;;;;4921990;29;20377;-84
2021/12/30 02:45:38;;;;;;;42.88;5.38;;;6.50;99.90;;;;;;4922014;29;20044;-84
2021/12/30 02:48:04;;;;;;;37.75;5.43;;;6.50;99.90;;;;;;4921925;29;20048;-84
2021/12/30 02:50:30;;;;;;;41.33;5.72;;;6.50;99.90;;;;;;4921441;29;20051;-84
2021/12/30 02:52:56;;;;;;;41.85;6.72;;;6.50;99.90;;;;;;4921981;29;20048;-87
2021/12/30 02:55:22;;;;;;;41.63;5.72;;;6.50;99.90;;;;;;4938758;29;20102;-84
2021/12/30 02:57:48;;;;;;;48.08;6.18;;;6.50;99.90;;;;;;4938593;29;20044;-84
2021/12/30 03:00:14;;;;;;;44.10;6.43;;;6.50;99.90;;;;;;4921746;29;20049;-84
2021/12/30 03:02:40;;;;;;;56.97;7.85;;;6.50;99.90;;;;;;4921490;29;20048;-84
2021/12/30 03:05:08;;;;;;;56.15;8.90;;;6.50;99.90;;;;;;4921454;29;20044;-84
2021/12/30 03:07:34;;;;;;;46.72;6.97;;;6.50;99.90;;;;;;4921363;29;20126;-84
2021/12/30 03:10:00;;;;;;;42.40;7.15;;;6.60;99.90;;;;;;4921442;29;20044;-80
2021/12/30 03:12:27;;;;;;;39.80;7.43;;;6.60;99.90;;;;;;4938320;29;20047;-79
2021/12/30 03:14:53;;;;;;;48.15;5.82;;;6.60;99.90;;;;;;4921475;29;20047;-79
2021/12/30 03:17:19;;;;;;;39.83;5.88;;;6.60;99.90;;;;;;4938425;29;20054;-79
2021/12/30 03:19:45;;;;;;;52.75;7.30;;;6.60;99.90;;;;;;4921220;29;20047;-79
2021/12/30 03:22:12;;;;;;;46.72;5.72;;;6.60;99.90;;;;;;4938341;29;20046;-79
2021/12/30 03:24:37;;;;;;;45.83;6.95;;;6.50;99.90;;;;;;4921095;29;20055;-80
2021/12/30 03:27:06;;;;;;;52.67;8.32;;;6.50;99.90;;;;;;4938182;29;20047;-80
2021/12/30 03:29:31;;;;;;;41.17;6.72;;;6.50;99.90;;;;;;4921173;29;20399;-79
2021/12/30 03:31:57;;;;;;;35.53;4.95;;;6.50;99.90;;;;;;4920899;29;20480;-79
2021/12/30 03:34:23;;;;;;;41.80;6.97;;;6.50;99.90;;;;;;4920730;29;20084;-79
2021/12/30 03:36:49;;;;;;;36.40;6.38;;;6.50;99.90;;;;;;4920320;29;20130;-79
2021/12/30 03:39:14;;;;;;;36.97;5.43;;;6.50;99.90;;;;;;4921731;29;20142;-79
2021/12/30 03:41:40;;;;;;;54.45;6.70;;;6.60;99.90;;;;;;4920971;29;20048;-79
2021/12/30 03:44:06;;;;;;;53.83;6.90;;;6.60;99.90;;;;;;4920700;29;20051;-79
2021/12/30 03:46:32;;;;;;;36.88;5.82;;;6.60;99.90;;;;;;4920761;29;20126;-79
2021/12/30 03:49:00;;;;;;;47.40;7.47;;;6.70;99.90;;;;;;4920675;29;20183;-79
2021/12/30 03:51:25;;;;;;;48.78;5.75;;;6.70;99.90;;;;;;4920381;29;20067;-79
2021/12/30 03:53:57;;;;;;;39.90;6.78;;;6.70;99.90;;;;;;4920674;29;20052;-79
2021/12/30 03:56:26;;;;;;;51.97;7.65;;;6.80;99.90;;;;;;4920473;29;20118;-79
2021/12/30 03:58:52;;;;;;;37.58;6.32;;;6.80;99.90;;;;;;4937633;29;20071;-79
2021/12/30 04:01:21;;;;;;;40.53;6.25;;;6.80;99.90;;;;;;4920486;29;20122;-79
2021/12/30 04:03:48;;;;;;;40.00;6.20;;;6.70;99.90;;;;;;4920473;29;20043;-79
2021/12/30 04:06:14;;;;;;;42.17;6.47;;;6.80;99.90;;;;;;4920322;29;20052;-79
2021/12/30 04:08:40;;;;;;;39.50;5.88;;;6.70;99.90;;;;;;4937461;29;20047;-79
2021/12/30 04:11:06;;;;;;;35.67;7.47;;;6.70;99.90;;;;;;4920443;29;20616;-79
2021/12/30 04:13:33;;;;;;;47.47;7.20;;;6.70;99.90;;;;;;4937364;29;20126;-79
2021/12/30 04:15:59;;;;;;;49.75;7.72;;;6.70;99.90;;;;;;4937312;29;20098;-79
2021/12/30 04:18:25;;;;;;;46.72;7.50;;;6.70;99.90;;;;;;4920465;29;20047;-79
2021/12/30 04:20:51;;;;;;;42.85;6.88;;;6.70;99.90;;;;;;4920325;29;20126;-80
2021/12/30 04:23:17;;;;;;;50.97;7.22;;;6.80;99.90;;;;;;4920199;29;20413;-79
2021/12/30 04:25:43;;;;;;;47.47;8.80;;;6.80;99.90;;;;;;4920175;29;20052;-79
2021/12/30 04:28:08;;;;;;;47.53;7.63;;;6.80;99.90;;;;;;4920156;29;20384;-79
2021/12/30 04:30:36;;;;;;;46.88;6.82;;;6.80;99.90;;;;;;4920265;29;20480;-79
2021/12/30 04:33:02;;;;;;;50.28;7.80;;;6.80;99.90;;;;;;4920174;29;20051;-79
2021/12/30 04:35:28;;;;;;;56.35;10.32;;;6.90;99.90;;;;;;4936961;29;20377;-80
2021/12/30 04:37:53;;;;;;;59.60;8.30;;;6.90;99.90;;;;;;4919688;29;20044;-79
2021/12/30 04:40:19;;;;;;;50.33;10.00;;;6.90;99.90;;;;;;4919998;29;20051;-79
2021/12/30 04:42:45;;;;;;;57.88;8.25;;;6.80;99.90;;;;;;4919933;29;20078;-79
2021/12/30 04:45:12;;;;;;;57.55;10.15;;;6.80;99.90;;;;;;4919571;29;20479;-79
2021/12/30 04:47:39;;;;;;;50.78;9.40;;;6.80;99.90;;;;;;4936451;29;20039;-79
2021/12/30 04:50:11;;;;;;;45.65;8.35;;;6.80;99.90;;;;;;4919673;29;20048;-79
2021/12/30 04:52:37;;;;;;;58.92;9.90;;;6.90;99.90;;;;;;4936784;29;20055;-79
2021/12/30 04:55:04;;;;;;;75.18;12.70;;;7.00;99.90;;;;;;4920182;29;20052;-79
2021/12/30 04:57:29;;;;;;;68.05;11.20;;;7.00;99.90;;;;;;4919734;29;20059;-79
2021/12/30 04:59:55;;;;;;;70.38;10.05;;;7.00;99.90;;;;;;4936410;29;20048;-79
2021/12/30 05:02:24;;;;;;;54.88;8.88;;;7.00;99.90;;;;;;4919470;29;20043;-79
2021/12/30 05:04:50;;;;;;;61.88;11.05;;;7.00;99.90;;;;;;4919345;29;20062;-79
2021/12/30 05:07:15;;;;;;;53.08;9.52;;;7.00;99.90;;;;;;4919347;29;20142;-79
2021/12/30 05:09:41;;;;;;;67.28;13.45;;;7.10;99.90;;;;;;4919619;29;20051;-79
2021/12/30 05:12:07;;;;;;;58.15;13.45;;;7.20;99.90;;;;;;4919397;29;20091;-79
2021/12/30 05:14:33;;;;;;;61.88;11.75;;;7.20;99.90;;;;;;4936553;29;20039;-79
2021/12/30 05:17:03;;;;;;;72.05;11.50;;;7.30;99.90;;;;;;4919340;29;20046;-79
2021/12/30 05:19:30;;;;;;;74.20;14.32;;;7.40;99.90;;;;;;4919741;29;20056;-79
2021/12/30 05:21:56;;;;;;;65.68;11.20;;;7.50;99.90;;;;;;4919453;29;20047;-79
2021/12/30 05:24:21;;;;;;;71.03;12.75;;;7.50;99.90;;;;;;4936219;29;20424;-79
2021/12/30 05:26:47;;;;;;;78.40;13.05;;;7.70;99.90;;;;;;4919387;29;20518;-79
2021/12/30 05:29:15;;;;;;;77.32;13.30;;;7.70;99.90;;;;;;4919352;29;20499;-79
2021/12/30 05:31:41;;;;;;;81.78;14.50;;;7.80;99.90;;;;;;4919216;29;20480;-79
2021/12/30 05:34:06;;;;;;;76.55;14.95;;;7.70;99.90;;;;;;4919263;29;20103;-79
2021/12/30 05:36:32;;;;;;;74.60;12.50;;;7.80;99.90;;;;;;4919038;29;20051;-79
2021/12/30 05:38:58;;;;;;;85.05;15.10;;;7.80;99.90;;;;;;4919390;29;20083;-79
2021/12/30 05:41:26;;;;;;;86.22;14.23;;;7.90;99.90;;;;;;4919065;29;20127;-80
2021/12/30 05:43:52;;;;;;;88.68;16.08;;;8.00;99.90;;;;;;4919176;29;20086;-80
2021/12/30 05:46:18;;;;;;;86.45;15.82;;;7.90;99.90;;;;;;4936148;29;20393;-80
2021/12/30 05:48:44;;;;;;;103.60;17.92;;;8.00;99.90;;;;;;4919215;29;20125;-79
2021/12/30 05:51:09;;;;;;;85.70;16.80;;;8.00;99.90;;;;;;4935864;29;20122;-80
2021/12/30 05:53:35;;;;;;;104.78;19.85;;;8.00;99.90;;;;;;4918967;29;20103;-80
2021/12/30 05:56:01;;;;;;;106.68;20.08;;;8.10;99.90;;;;;;4919212;29;20074;-79
2021/12/30 05:58:27;;;;;;;89.80;17.85;;;8.20;99.90;;;;;;4936920;29;20114;-80
2021/12/30 06:00:52;;;;;;;103.07;20.42;;;8.30;99.90;;;;;;4922836;29;20052;-80
2021/12/30 06:03:19;;;;;;;100.85;19.35;;;8.30;99.90;;;;;;4939543;29;20058;-80
2021/12/30 06:05:51;;;;;;;83.40;18.77;;;8.40;99.90;;;;;;4922694;29;20043;-80
2021/12/30 06:08:17;;;;;;;98.00;19.27;;;8.30;99.90;;;;;;4922532;29;20480;-80
2021/12/30 06:10:45;;;;;;;89.72;18.35;;;8.40;99.90;;;;;;4922462;29;20040;-80
2021/12/30 06:13:12;;;;;;;106.57;20.30;;;8.40;99.90;;;;;;4922625;29;20135;-80
2021/12/30 06:15:38;;;;;;;89.20;20.67;;;8.50;99.90;;;;;;4922198;29;20059;-80
2021/12/30 06:18:04;;;;;;;91.13;18.90;;;8.50;99.90;;;;;;4922228;29;20062;-80
2021/12/30 06:20:30;;;;;;;100.88;20.08;;;8.60;99.90;;;;;;4922348;29;20492;-80
2021/12/30 06:22:56;;;;;;;87.05;18.65;;;8.60;99.90;;;;;;4922509;29;20196;-80
2021/12/30 06:25:22;;;;;;;98.40;21.23;;;8.60;99.90;;;;;;4939187;29;20161;-80
2021/12/30 06:27:48;;;;;;;87.95;19.55;;;8.60;99.90;;;;;;4939159;29;20186;-80
2021/12/30 06:30:14;;;;;;;90.45;19.20;;;8.60;99.90;;;;;;4939096;29;20047;-80
2021/12/30 06:32:40;;;;;;;77.10;18.55;;;8.60;99.90;;;;;;4922192;29;20051;-80
2021/12/30 06:35:08;;;;;;;83.90;18.77;;;8.70;99.90;;;;;;4922261;29;20047;-80
2021/12/30 06:37:35;;;;;;;92.15;18.98;;;8.70;99.90;;;;;;4922181;29;20400;-80
2021/12/30 06:40:03;;;;;;;87.60;21.92;;;8.70;99.90;;;;;;4922322;29;20063;-80
2021/12/30 06:42:28;;;;;;;82.03;17.25;;;8.70;99.90;;;;;;4922148;29;20059;-80
2021/12/30 06:44:54;;;;;;;89.10;17.38;;;8.70;99.90;;;;;;4938797;29;20051;-80
2021/12/30 06:47:20;;;;;;;74.78;17.85;;;8.70;99.90;;;;;;4921797;29;20055;-80
2021/12/30 06:49:45;;;;;;;114.32;20.02;;;8.80;99.90;;;;;;4921679;29;20498;-80
2021/12/30 06:52:12;;;;;;;80.78;18.80;;;8.80;99.90;;;;;;4921686;29;20071;-80
2021/12/30 06:54:39;;;;;;;92.00;16.42;;;8.80;99.90;;;;;;4922009;29;20059;-80
2021/12/30 06:57:06;;;;;;;90.18;17.92;;;8.90;99.90;;;;;;4921907;29;20048;-80
2021/12/30 06:59:32;;;;;;;98.07;17.25;;;8.80;99.90;;;;;;4921456;29;20063;-80
2021/12/30 07:01:58;;;;;;;86.82;17.50;;;8.80;99.90;;;;;;4921587;29;20062;-81
2021/12/30 07:04:25;;;;;;;92.50;16.77;;;8.80;99.90;;;;;;4938561;29;20044;-80
2021/12/30 07:06:54;;;;;;;84.30;17.23;;;8.80;99.90;;;;;;4921540;29;20090;-80
2021/12/30 07:09:20;;;;;;;87.80;17.35;;;8.80;99.90;;;;;;4921323;29;20075;-80
2021/12/30 07:11:49;;;;;;;101.25;17.02;;;8.80;99.90;;;;;;4921425;29;20058;-80
2021/12/30 07:14:17;;;;;;;85.90;15.32;;;8.80;99.90;;;;;;4921284;29;20051;-80
2021/12/30 07:16:43;;;;;;;72.80;15.38;;;8.80;99.90;;;;;;4921536;29;20055;-80
2021/12/30 07:19:09;;;;;;;77.47;16.92;;;8.80;99.90;;;;;;4921196;29;20047;-80
2021/12/30 07:21:34;;;;;;;68.72;15.73;;;8.90;99.90;;;;;;4921516;29;20102;-80
2021/12/30 07:24:00;;;;;;;66.50;13.60;;;8.90;99.90;;;;;;4921513;29;20396;-80
2021/12/30 07:26:25;;;;;;;87.18;15.95;;;8.90;99.90;;;;;;4921178;29;20051;-80
2021/12/30 07:28:51;;;;;;;71.55;13.68;;;8.90;99.90;;;;;;4921306;29;20145;-80
2021/12/30 07:31:17;;;;;;;74.93;14.57;;;9.00;99.90;;;;;;4938166;29;20047;-80
2021/12/30 07:33:42;;;;;;;81.22;15.25;;;9.00;99.90;;;;;;4921225;29;20066;-80
2021/12/30 07:36:08;;;;;;;77.65;14.88;;;9.10;99.90;;;;;;4921303;29;20499;-80
2021/12/30 07:38:34;;;;;;;68.72;12.60;;;9.10;99.90;;;;;;4920966;29;20135;-80
2021/12/30 07:41:00;;;;;;;51.95;11.63;;;9.10;99.90;;;;;;4920925;29;20142;-80
2021/12/30 07:43:26;;;;;;;63.60;13.18;;;9.10;99.90;;;;;;4920742;29;20480;-80
2021/12/30 07:45:51;;;;;;;73.95;14.35;;;9.20;99.90;;;;;;4920865;29;20048;-80
2021/12/30 07:48:18;;;;;;;71.82;14.50;;;9.20;99.90;;;;;;4921002;29;20054;-80
2021/12/30 07:50:44;;;;;;;64.40;13.35;;;9.20;99.90;;;;;;4920656;29;20058;-80
2021/12/30 07:53:10;;;;;;;55.97;12.85;;;9.20;99.90;;;;;;4920671;29;20055;-80
2021/12/30 07:55:36;;;;;;;59.08;12.88;;;9.20;99.90;;;;;;4920948;29;20456;-80
2021/12/30 07:58:02;;;;;;;70.30;12.02;;;9.30;99.90;;;;;;4920703;29;20079;-80
2021/12/30 08:00:27;;;;;;;46.80;10.40;;;9.30;99.90;;;;;;4920522;29;20425;-80
2021/12/30 08:02:53;;;;;;;48.40;11.43;;;9.30;99.90;;;;;;4920039;29;20047;-80
2021/12/30 08:05:20;;;;;;;51.45;11.07;;;9.30;99.90;;;;;;4919621;29;20044;-80
2021/12/30 08:07:47;;;;;;;44.17;10.38;;;9.40;99.90;;;;;;4919300;29;20052;-80
2021/12/30 08:10:14;;;;;;;48.70;9.75;;;9.40;99.90;;;;;;4936923;29;20629;-80
2021/12/30 08:12:45;;;;;;;34.63;8.98;;;9.40;99.90;;;;;;4920054;29;20492;-79
2021/12/30 08:15:13;;;;;;;42.25;8.98;;;9.40;99.90;;;;;;4937238;29;20075;-80
2021/12/30 08:17:40;;;;;;;44.88;8.60;;;9.40;99.90;;;;;;4919057;29;20051;-80
2021/12/30 08:20:07;;;;;;;41.53;7.63;;;9.30;99.90;;;;;;4919633;29;20047;-79
2021/12/30 08:22:34;;;;;;;26.23;6.15;;;9.30;99.90;;;;;;4919586;29;20051;-79
2021/12/30 08:25:00;;;;;;;22.58;5.57;;;9.20;99.90;;;;;;4920026;29;20396;-80
2021/12/30 08:27:26;;;;;;;21.73;5.25;;;9.30;99.90;;;;;;4919700;29;20048;-79
2021/12/30 08:29:52;;;;;;;34.33;6.18;;;9.30;99.90;;;;;;4920129;29;20435;-79
2021/12/30 08:32:18;;;;;;;33.95;6.10;;;9.30;99.90;;;;;;4936819;29;20550;-79
2021/12/30 08:34:45;;;;;;;25.67;5.72;;;9.30;99.90;;;;;;4919729;29;20051;-79
2021/12/30 08:37:12;;;;;;;22.23;6.22;;;9.30;99.90;;;;;;4919917;29;20082;-80
2021/12/30 08:39:39;;;;;;;24.92;7.15;;;9.40;99.90;;;;;;4919680;29;20048;-79
2021/12/30 08:42:15;;;;;;;38.17;9.18;;;9.50;99.90;;;;;;4919873;29;20055;-80
2021/12/30 08:44:41;;;;;;;43.83;11.30;;;9.60;99.90;;;;;;4919715;29;20051;-80
2021/12/30 08:47:07;;;;;;;41.33;10.50;;;9.80;99.90;;;;;;4919585;29;20051;-79
2021/12/30 08:49:33;;;;;;;46.47;11.15;;;9.80;99.90;;;;;;4918423;29;20179;-79
2021/12/30 08:51:58;;;;;;;39.50;9.57;;;9.90;99.90;;;;;;4919054;29;20134;-79
2021/12/30 08:54:24;;;;;;;39.35;9.88;;;9.90;99.90;;;;;;4936378;29;20039;-79
2021/12/30 08:56:50;;;;;;;39.30;10.88;;;10.00;99.90;;;;;;4919461;29;20404;-79
2021/12/30 08:59:15;;;;;;;43.63;8.43;;;10.00;99.90;;;;;;4919110;29;20069;-79
2021/12/30 09:01:41;;;;;;;32.42;8.98;;;10.10;99.90;;;;;;4936164;29;20060;-80
2021/12/30 09:04:07;;;;;;;38.85;7.85;;;10.10;99.90;;;;;;4919220;29;20435;-79
2021/12/30 09:06:33;;;;;;;30.58;7.13;;;10.20;99.90;;;;;;4919158;29;20055;-79
2021/12/30 09:08:59;;;;;;;32.00;7.53;;;10.20;99.90;;;;;;4919246;29;20094;-79
2021/12/30 09:11:25;;;;;;;32.40;7.40;;;10.30;99.90;;;;;;4936129;29;20079;-80
2021/12/30 09:13:50;;;;;;;34.92;7.55;;;10.20;99.90;;;;;;4936308;29;20089;-79
2021/12/30 09:16:16;;;;;;;26.10;6.20;;;10.30;99.90;;;;;;4935887;29;20043;-79
2021/12/30 09:18:42;;;;;;;37.28;6.03;;;10.30;99.90;;;;;;4918973;29;20106;-80
2021/12/30 09:21:08;;;;;;;30.88;7.53;;;10.30;99.90;;;;;;4918855;29;20111;-80
2021/12/30 09:23:34;;;;;;;30.20;6.10;;;10.40;99.90;;;;;;4935948;29;20054;-79
2021/12/30 09:26:00;;;;;;;30.20;5.68;;;10.40;99.90;;;;;;4918684;29;20043;-79
2021/12/30 09:28:26;;;;;;;30.23;6.72;;;10.40;99.90;;;;;;4935941;29;20385;-80
2021/12/30 09:30:52;;;;;;;26.27;5.28;;;10.40;99.90;;;;;;4935832;29;20042;-80
2021/12/30 09:33:17;;;;;;;25.65;5.78;;;10.40;99.90;;;;;;4919576;29;20563;-79
2021/12/30 09:35:47;;;;;;;30.90;5.70;;;10.40;99.90;;;;;;4939758;29;20052;-79
2021/12/30 09:38:13;;;;;;;29.67;4.95;;;10.50;99.90;;;;;;4922588;29;20050;-79
2021/12/30 09:40:39;;;;;;;34.28;6.13;;;10.40;99.90;;;;;;4922320;29;20050;-80
2021/12/30 09:43:05;;;;;;;28.20;5.18;;;10.40;99.90;;;;;;4922472;29;20412;-79
2021/12/30 09:45:38;;;;;;;22.60;5.30;;;10.50;99.90;;;;;;4922390;29;20048;-80
2021/12/30 09:48:04;;;;;;;;;;;10.50;99.90;;;;;;4922787;29;20058;-79
2021/12/30 09:50:41;;;;;;;28.65;5.50;;;10.50;99.90;;;;;;4922447;29;19930;-81
2021/12/30 09:53:07;;;;;;;30.05;5.78;;;10.50;99.90;;;;;;4922714;29;20082;-81
2021/12/30 09:55:34;;;;;;;41.13;5.88;;;10.50;99.90;;;;;;4922270;29;20075;-80
2021/12/30 09:58:01;;;;;;;39.80;6.65;;;10.50;99.90;;;;;;4922189;29;20506;-80
2021/12/30 10:00:27;;;;;;;20.15;4.40;;;10.50;99.90;;;;;;4921979;29;20040;-81
2021/12/30 10:02:52;;;;;;;33.55;7.43;;;10.50;99.90;;;;;;4922152;29;20062;-81
2021/12/30 10:05:22;;;;;;;28.88;5.15;;;10.50;99.90;;;;;;4921914;29;20043;-80
2021/12/30 10:07:48;;;;;;;33.88;5.57;;;10.50;99.90;;;;;;4921885;29;20079;-80
2021/12/30 10:10:35;;;;;;;28.67;5.65;;;10.50;99.90;;;;;;4938826;29;20122;-81
2021/12/30 10:13:13;;;;;;;29.33;5.22;;;10.60;99.90;;;;;;4921644;29;20051;-81
2021/12/30 10:15:45;;;;;;;22.80;5.13;;;10.60;99.90;;;;;;4922731;29;20050;-80
2021/12/30 10:18:10;;;;;;;37.53;5.90;;;10.60;99.90;;;;;;4922186;29;20470;-81
2021/12/30 10:20:39;;;;;;;29.45;5.05;;;10.60;99.90;;;;;;4921821;29;20122;-81
2021/12/30 10:23:11;;;;;;;25.05;5.50;;;10.60;99.90;;;;;;4918658;29;20088;-80
2021/12/30 10:25:40;;;;;;;36.03;6.75;;;10.60;99.90;;;;;;4921729;29;20040;-81
2021/12/30 10:28:22;;;;;;;28.50;6.47;;;10.60;99.90;;;;;;4921785;29;20055;-81
2021/12/30 10:30:50;;;;;;;30.42;5.97;;;10.60;99.90;;;;;;4921880;29;20047;-82
2021/12/30 10:33:20;;;;;;;35.47;5.30;;;10.60;99.90;;;;;;4921706;29;20063;-82
2021/12/30 10:35:47;;;;;;;30.98;6.28;;;10.60;99.90;;;;;;4921841;29;20550;-82
2021/12/30 10:38:14;;;;;;;35.17;5.57;;;10.60;99.90;;;;;;4921596;29;20050;-80
2021/12/30 10:40:46;;;;;;;33.60;5.72;;;10.60;99.90;;;;;;4921201;29;20056;-80
2021/12/30 10:43:37;;;;;;;34.60;5.50;;;10.60;99.90;;;;;;4934878;29;20060;-81
2021/12/30 10:46:16;;;;;;;36.80;6.72;;;10.60;99.90;;;;;;4921240;29;20479;-81
2021/12/30 10:49:00;;;;;;;42.30;6.18;;;10.60;99.90;;;;;;4921409;29;20075;-81
2021/12/30 10:51:48;;;;;;;40.33;5.75;;;10.60;99.90;;;;;;4920947;29;20550;-82
2021/12/30 10:54:34;;;;;;;33.63;5.07;;;10.60;99.90;;;;;;4921551;29;20127;-80
2021/12/30 10:57:05;;;;;;;32.55;6.47;;;10.60;99.90;;;;;;4921276;29;20521;-81
2021/12/30 10:59:35;;;;;;;38.13;5.90;;;10.60;99.90;;;;;;4921567;29;20110;-81
2021/12/30 11:02:12;;;;;;;37.17;5.70;;;10.60;99.90;;;;;;4938385;29;20078;-81
2021/12/30 11:04:49;;;;;;;39.28;6.25;;;10.70;99.90;;;;;;4921122;29;20066;-81
2021/12/30 11:07:18;;;;;;;42.38;6.50;;;10.70;99.90;;;;;;4921014;29;20055;-81
2021/12/30 11:09:52;;;;;;;44.85;6.95;;;10.70;99.90;;;;;;4921225;29;20055;-80
2021/12/30 11:12:32;;;;;;;47.40;5.88;;;10.60;99.90;;;;;;4920579;29;20046;-80
2021/12/30 11:15:05;;;;;;;59.95;8.65;;;10.70;99.90;;;;;;4902394;29;20507;-81
2021/12/30 11:17:35;;;;;;;53.72;8.48;;;10.70;99.90;;;;;;4886579;29;20052;-80
2021/12/30 11:20:09;;;;;;;43.13;7.70;;;10.70;99.90;;;;;;4902018;29;20050;-80
2021/12/30 11:22:38;;;;;;;42.92;7.03;;;10.70;99.90;;;;;;4919829;29;20122;-80
2021/12/30 11:25:07;;;;;;;55.10;8.05;;;10.70;99.90;;;;;;4920604;29;20464;-80
2021/12/30 11:27:33;;;;;;;58.42;8.18;;;10.70;99.90;;;;;;4920658;29;20052;-81
2021/12/30 11:30:06;;;;;;;54.15;7.72;;;10.70;99.90;;;;;;4920616;29;20095;-81
2021/12/30 11:32:34;;;;;;;61.65;8.50;;;10.70;99.90;;;;;;4920863;29;20075;-81
2021/12/30 11:35:03;;;;;;;55.05;8.50;;;10.70;99.90;;;;;;4920713;29;20044;-81
2021/12/30 11:37:29;;;;;;;49.15;8.25;;;10.70;99.90;;;;;;4920537;29;20543;-80
2021/12/30 11:39:57;;;;;;;47.65;9.00;;;10.70;99.90;;;;;;4920382;29;20051;-80
2021/12/30 11:42:35;;;;;;;54.90;9.02;;;10.70;99.90;;;;;;4936999;29;20036;-80
2021/12/30 11:45:08;;;;;;;49.42;8.55;;;10.70;99.90;;;;;;4918436;29;20048;-80
2021/12/30 11:47:34;;;;;;;46.45;8.23;;;10.70;99.90;;;;;;4901462;29;20055;-81
2021/12/30 11:50:15;;;;;;;58.13;8.20;;;10.70;99.90;;;;;;4918611;29;20507;-79
2021/12/30 11:53:02;;;;;;;52.28;8.23;;;10.70;99.90;;;;;;4901496;29;20059;-81
2021/12/30 11:55:52;;;;;;;45.10;8.77;;;10.70;99.90;;;;;;4917971;29;20127;-80
2021/12/30 11:58:36;;;;;;;44.22;7.78;;;10.70;99.90;;;;;;4901272;29;20054;-80
2021/12/30 12:01:10;;;;;;;47.30;8.73;;;10.70;99.90;;;;;;4917195;29;20048;-80
2021/12/30 12:03:43;;;;;;;52.08;8.25;;;10.70;99.90;;;;;;4901706;29;20485;-80
2021/12/30 12:06:24;;;;;;;60.97;7.20;;;10.70;99.90;;;;;;4901028;29;20103;-80
2021/12/30 12:08:55;;;;;;;58.88;8.52;;;10.70;99.90;;;;;;4901077;29;20440;-80
2021/12/30 12:11:30;;;;;;;53.00;7.38;;;10.70;99.90;;;;;;4908184;29;20488;-81
2021/12/30 12:14:11;;;;;;;62.58;7.05;;;10.70;99.90;;;;;;4911961;29;20126;-81
2021/12/30 12:16:51;;;;;;;57.67;8.95;;;10.80;99.90;;;;;;4919864;29;20075;-81
2021/12/30 12:19:39;;;;;;;46.65;7.07;;;10.80;99.90;;;;;;4936920;29;20455;-80
2021/12/30 12:22:19;;;;;;;56.47;8.88;;;10.80;99.90;;;;;;4919293;29;20151;-80
2021/12/30 12:24:49;;;;;;;66.28;8.27;;;10.80;99.90;;;;;;4919731;29;20095;-80
2021/12/30 12:27:20;;;;;;;48.13;9.35;;;10.80;99.90;;;;;;4919564;29;20051;-80
2021/12/30 12:29:57;;;;;;;42.15;7.15;;;10.80;99.90;;;;;;4919935;29;20134;-80
2021/12/30 12:32:34;;;;;;;54.05;8.57;;;10.90;99.90;;;;;;4919822;29;20131;-80
2021/12/30 12:35:23;;;;;;;37.28;6.72;;;10.90;99.90;;;;;;4919785;29;20051;-81
2021/12/30 12:38:00;;;;;;;53.70;8.18;;;10.90;99.90;;;;;;4919862;29;20087;-80
2021/12/30 12:40:33;;;;;;;61.30;9.60;;;10.90;99.90;;;;;;4918269;29;20058;-79
2021/12/30 12:43:07;;;;;;;47.75;7.32;;;10.90;99.90;;;;;;4919603;29;20074;-79
2021/12/30 12:45:38;;;;;;;42.47;7.95;;;10.90;99.90;;;;;;4936750;29;20043;-79